sensor_id;sensor_type;location;lat;lon;timestamp;pressure;altitude;pressure_sealevel;temperature;humidity
11712;BME280;5912;51.034;6.984;2023-11-19T00:00:06;56578.69;;;-142.13;77.19
11712;BME280;5912;51.034;6.984;2023-11-19T00:02:40;56576.69;;;-142.13;77.18
11712;BME280;5912;51.034;6.984;2023-11-19T00:05:06;56576.69;;;-142.13;77.04
11712;BME280;5912;51.034;6.984;2023-11-19T00:07:35;56552.66;;;-142.13;77.03
11712;BME280;5912;51.034;6.984;2023-11-19T00:10:00;56562.66;;;-142.13;76.80
11712;BME280;5912;51.034;6.984;2023-11-19T00:12:29;56588.69;;;-142.13;76.89
11712;BME280;5912;51.034;6.984;2023-11-19T00:14:54;56570.69;;;-142.13;76.27
11712;BME280;5912;51.034;6.984;2023-11-19T00:17:20;56554.66;;;-142.13;76.96
11712;BME280;5912;51.034;6.984;2023-11-19T00:19:45;56562.66;;;-142.13;76.86
11712;BME280;5912;51.034;6.984;2023-11-19T00:22:11;56552.66;;;-142.13;77.07
11712;BME280;5912;51.034;6.984;2023-11-19T00:24:36;56534.63;;;-142.13;77.02
11712;BME280;5912;51.034;6.984;2023-11-19T00:27:02;56616.75;;;-142.13;77.27
11712;BME280;5912;51.034;6.984;2023-11-19T00:29:27;56552.66;;;-142.13;77.22
11712;BME280;5912;51.034;6.984;2023-11-19T00:31:52;56590.72;;;-142.13;77.32
11712;BME280;5912;51.034;6.984;2023-11-19T00:34:18;56552.66;;;-142.13;77.13
11712;BME280;5912;51.034;6.984;2023-11-19T00:36:46;56552.66;;;-142.13;77.32
11712;BME280;5912;51.034;6.984;2023-11-19T00:39:11;56560.66;;;-142.13;77.41
11712;BME280;5912;51.034;6.984;2023-11-19T00:41:40;56552.66;;;-142.13;77.58
11712;BME280;5912;51.034;6.984;2023-11-19T00:44:05;56546.63;;;-142.13;77.16
11712;BME280;5912;51.034;6.984;2023-11-19T00:46:30;56544.63;;;-142.13;77.36
11712;BME280;5912;51.034;6.984;2023-11-19T00:48:57;56576.69;;;-142.13;77.32
11712;BME280;5912;51.034;6.984;2023-11-19T00:51:25;56552.66;;;-142.13;77.32
11712;BME280;5912;51.034;6.984;2023-11-19T00:53:51;56534.63;;;-142.13;77.42
11712;BME280;5912;51.034;6.984;2023-11-19T00:56:18;56532.63;;;-142.13;77.47
11712;BME280;5912;51.034;6.984;2023-11-19T00:58:44;56538.63;;;-142.13;77.22
11712;BME280;5912;51.034;6.984;2023-11-19T01:01:11;56540.63;;;-142.13;77.23
11712;BME280;5912;51.034;6.984;2023-11-19T01:03:37;56548.63;;;-142.13;77.30
11712;BME280;5912;51.034;6.984;2023-11-19T01:06:03;56560.66;;;-142.13;77.42
11712;BME280;5912;51.034;6.984;2023-11-19T01:08:31;56576.69;;;-142.13;77.27
11712;BME280;5912;51.034;6.984;2023-11-19T01:10:57;56558.66;;;-142.13;77.32
11712;BME280;5912;51.034;6.984;2023-11-19T01:13:22;56550.63;;;-142.13;77.27
11712;BME280;5912;51.034;6.984;2023-11-19T01:15:48;56544.63;;;-142.13;77.46
11712;BME280;5912;51.034;6.984;2023-11-19T01:18:13;56548.63;;;-142.13;77.27
11712;BME280;5912;51.034;6.984;2023-11-19T01:20:38;56562.66;;;-142.13;77.45
11712;BME280;5912;51.034;6.984;2023-11-19T01:23:04;56554.66;;;-142.13;77.40
11712;BME280;5912;51.034;6.984;2023-11-19T01:25:29;56524.59;;;-142.13;77.31
11712;BME280;5912;51.034;6.984;2023-11-19T01:27:54;56526.59;;;-142.13;77.42
11712;BME280;5912;51.034;6.984;2023-11-19T01:30:22;56548.63;;;-142.13;77.36
11712;BME280;5912;51.034;6.984;2023-11-19T01:32:47;56548.63;;;-142.13;77.42
11712;BME280;5912;51.034;6.984;2023-11-19T01:35:13;56548.63;;;-142.13;77.57
11712;BME280;5912;51.034;6.984;2023-11-19T01:37:38;56552.66;;;-142.13;77.51
11712;BME280;5912;51.034;6.984;2023-11-19T01:40:04;56518.59;;;-142.13;77.54
11712;BME280;5912;51.034;6.984;2023-11-19T01:42:36;56536.63;;;-142.13;77.55
11712;BME280;5912;51.034;6.984;2023-11-19T01:45:02;56540.63;;;-142.13;77.59
11712;BME280;5912;51.034;6.984;2023-11-19T01:47:30;56554.66;;;-142.13;77.62
11712;BME280;5912;51.034;6.984;2023-11-19T01:49:56;56520.59;;;-142.13;77.72
11712;BME280;5912;51.034;6.984;2023-11-19T01:52:22;56536.63;;;-142.13;77.65
11712;BME280;5912;51.034;6.984;2023-11-19T01:54:47;56534.63;;;-142.13;77.87
11712;BME280;5912;51.034;6.984;2023-11-19T01:57:14;56512.59;;;-142.13;78.06
11712;BME280;5912;51.034;6.984;2023-11-19T01:59:39;56522.59;;;-142.13;78.12
11712;BME280;5912;51.034;6.984;2023-11-19T02:02:06;56528.59;;;-142.13;78.18
11712;BME280;5912;51.034;6.984;2023-11-19T02:04:31;56514.59;;;-142.13;78.34
11712;BME280;5912;51.034;6.984;2023-11-19T02:06:58;56508.56;;;-142.13;78.37
11712;BME280;5912;51.034;6.984;2023-11-19T02:09:24;56532.63;;;-142.13;78.27
11712;BME280;5912;51.034;6.984;2023-11-19T02:11:49;56536.63;;;-142.13;78.92
11712;BME280;5912;51.034;6.984;2023-11-19T02:14:17;56528.59;;;-142.13;79.58
11712;BME280;5912;51.034;6.984;2023-11-19T02:16:43;56516.59;;;-142.13;79.23
11712;BME280;5912;51.034;6.984;2023-11-19T02:19:08;56520.59;;;-142.13;79.28
11712;BME280;5912;51.034;6.984;2023-11-19T02:21:35;56518.59;;;-142.13;79.62
11712;BME280;5912;51.034;6.984;2023-11-19T02:24:06;56524.59;;;-142.13;79.24
11712;BME280;5912;51.034;6.984;2023-11-19T02:28:58;56450.47;;;-142.13;78.97
11712;BME280;5912;51.034;6.984;2023-11-19T02:31:23;56496.56;;;-142.13;79.25
11712;BME280;5912;51.034;6.984;2023-11-19T02:33:48;56494.56;;;-142.13;79.09
11712;BME280;5912;51.034;6.984;2023-11-19T02:36:15;56516.59;;;-142.13;79.11
11712;BME280;5912;51.034;6.984;2023-11-19T02:38:41;56488.53;;;-142.13;79.16
11712;BME280;5912;51.034;6.984;2023-11-19T02:41:07;56524.59;;;-142.13;79.43
11712;BME280;5912;51.034;6.984;2023-11-19T02:43:33;56486.53;;;-142.13;79.27
11712;BME280;5912;51.034;6.984;2023-11-19T02:46:05;56488.53;;;-142.13;79.16
11712;BME280;5912;51.034;6.984;2023-11-19T02:48:34;56496.56;;;-142.13;78.97
11712;BME280;5912;51.034;6.984;2023-11-19T02:51:03;56490.53;;;-142.13;78.89
11712;BME280;5912;51.034;6.984;2023-11-19T02:53:30;56520.59;;;-142.13;78.81
11712;BME280;5912;51.034;6.984;2023-11-19T02:55:55;56498.56;;;-142.13;78.79
11712;BME280;5912;51.034;6.984;2023-11-19T02:58:27;56498.56;;;-142.13;78.58
11712;BME280;5912;51.034;6.984;2023-11-19T03:00:53;56494.56;;;-142.13;78.70
11712;BME280;5912;51.034;6.984;2023-11-19T03:03:24;56460.50;;;-142.13;78.65
11712;BME280;5912;51.034;6.984;2023-11-19T03:05:54;56506.56;;;-142.13;78.26
11712;BME280;5912;51.034;6.984;2023-11-19T03:08:20;56488.53;;;-142.13;78.11
11712;BME280;5912;51.034;6.984;2023-11-19T03:10:45;56480.53;;;-142.13;78.39
11712;BME280;5912;51.034;6.984;2023-11-19T03:13:12;56488.53;;;-142.13;78.27
11712;BME280;5912;51.034;6.984;2023-11-19T03:15:39;56486.53;;;-142.13;78.35
11712;BME280;5912;51.034;6.984;2023-11-19T03:18:05;56504.56;;;-142.13;78.39
11712;BME280;5912;51.034;6.984;2023-11-19T03:20:30;56476.53;;;-142.13;78.19
11712;BME280;5912;51.034;6.984;2023-11-19T03:22:55;56516.59;;;-142.13;77.93
11712;BME280;5912;51.034;6.984;2023-11-19T03:25:25;56470.50;;;-142.13;78.09
11712;BME280;5912;51.034;6.984;2023-11-19T03:27:52;56510.56;;;-142.13;77.92
11712;BME280;5912;51.034;6.984;2023-11-19T03:30:18;56512.59;;;-142.13;77.74
11712;BME280;5912;51.034;6.984;2023-11-19T03:32:44;56496.56;;;-142.13;77.71
11712;BME280;5912;51.034;6.984;2023-11-19T03:35:09;56506.56;;;-142.13;77.65
11712;BME280;5912;51.034;6.984;2023-11-19T03:37:34;56500.56;;;-142.13;77.89
11712;BME280;5912;51.034;6.984;2023-11-19T03:40:00;56490.53;;;-142.13;77.70
11712;BME280;5912;51.034;6.984;2023-11-19T03:42:26;56482.53;;;-142.13;77.41
11712;BME280;5912;51.034;6.984;2023-11-19T03:44:52;56530.59;;;-142.13;77.40
11712;BME280;5912;51.034;6.984;2023-11-19T03:47:18;56494.56;;;-142.13;76.70
11712;BME280;5912;51.034;6.984;2023-11-19T03:49:50;56510.56;;;-142.13;76.47
11712;BME280;5912;51.034;6.984;2023-11-19T03:52:17;56488.53;;;-142.13;76.39
11712;BME280;5912;51.034;6.984;2023-11-19T03:54:42;56460.50;;;-142.13;76.06
11712;BME280;5912;51.034;6.984;2023-11-19T03:57:08;56486.53;;;-142.13;75.88
11712;BME280;5912;51.034;6.984;2023-11-19T03:59:36;56492.53;;;-142.13;75.83
11712;BME280;5912;51.034;6.984;2023-11-19T04:02:01;56484.53;;;-142.13;76.13
11712;BME280;5912;51.034;6.984;2023-11-19T04:04:27;56508.56;;;-142.13;76.39
11712;BME280;5912;51.034;6.984;2023-11-19T04:06:53;56468.50;;;-142.13;76.37
11712;BME280;5912;51.034;6.984;2023-11-19T04:09:19;56526.59;;;-142.13;76.38
11712;BME280;5912;51.034;6.984;2023-11-19T04:11:44;56472.50;;;-142.13;76.66
11712;BME280;5912;51.034;6.984;2023-11-19T04:14:12;56468.50;;;-142.13;76.55
11712;BME280;5912;51.034;6.984;2023-11-19T04:16:38;56462.50;;;-142.13;76.74
11712;BME280;5912;51.034;6.984;2023-11-19T04:19:03;56484.53;;;-142.13;76.96
11712;BME280;5912;51.034;6.984;2023-11-19T04:21:29;56518.59;;;-142.13;76.74
11712;BME280;5912;51.034;6.984;2023-11-19T04:23:54;56472.50;;;-142.13;76.64
11712;BME280;5912;51.034;6.984;2023-11-19T04:26:19;56500.56;;;-142.13;76.32
11712;BME280;5912;51.034;6.984;2023-11-19T04:28:44;56512.59;;;-142.13;76.56
11712;BME280;5912;51.034;6.984;2023-11-19T04:31:10;56528.59;;;-142.13;76.50
11712;BME280;5912;51.034;6.984;2023-11-19T04:33:35;56508.56;;;-142.13;76.00
11712;BME280;5912;51.034;6.984;2023-11-19T04:36:00;56486.53;;;-142.13;76.32
11712;BME280;5912;51.034;6.984;2023-11-19T04:38:26;56516.59;;;-142.13;76.24
11712;BME280;5912;51.034;6.984;2023-11-19T04:40:52;56494.56;;;-142.13;76.31
11712;BME280;5912;51.034;6.984;2023-11-19T04:43:17;56510.56;;;-142.13;75.81
11712;BME280;5912;51.034;6.984;2023-11-19T04:45:42;56500.56;;;-142.13;75.54
11712;BME280;5912;51.034;6.984;2023-11-19T04:48:08;56510.56;;;-142.13;75.97
11712;BME280;5912;51.034;6.984;2023-11-19T04:50:34;56516.59;;;-142.13;75.64
11712;BME280;5912;51.034;6.984;2023-11-19T04:52:59;56496.56;;;-142.13;75.54
11712;BME280;5912;51.034;6.984;2023-11-19T04:55:25;56524.59;;;-142.13;75.57
11712;BME280;5912;51.034;6.984;2023-11-19T04:57:50;56488.53;;;-142.13;75.50
11712;BME280;5912;51.034;6.984;2023-11-19T05:00:15;56512.59;;;-142.13;75.06
11712;BME280;5912;51.034;6.984;2023-11-19T05:02:40;56502.56;;;-142.13;74.73
11712;BME280;5912;51.034;6.984;2023-11-19T05:05:06;56516.59;;;-142.13;74.55
11712;BME280;5912;51.034;6.984;2023-11-19T05:07:31;56512.59;;;-142.13;74.24
11712;BME280;5912;51.034;6.984;2023-11-19T05:09:56;56498.56;;;-142.13;74.60
11712;BME280;5912;51.034;6.984;2023-11-19T05:12:23;56462.50;;;-142.13;74.58
11712;BME280;5912;51.034;6.984;2023-11-19T05:14:48;56460.50;;;-142.13;74.41
11712;BME280;5912;51.034;6.984;2023-11-19T05:17:17;56520.59;;;-142.13;74.45
11712;BME280;5912;51.034;6.984;2023-11-19T05:19:43;56496.56;;;-142.13;74.40
11712;BME280;5912;51.034;6.984;2023-11-19T05:22:08;56494.56;;;-142.13;74.53
11712;BME280;5912;51.034;6.984;2023-11-19T05:24:34;56526.59;;;-142.13;74.28
11712;BME280;5912;51.034;6.984;2023-11-19T05:26:59;56508.56;;;-142.13;74.09
11712;BME280;5912;51.034;6.984;2023-11-19T05:29:24;56500.56;;;-142.13;73.90
11712;BME280;5912;51.034;6.984;2023-11-19T05:31:50;56490.53;;;-142.13;73.53
11712;BME280;5912;51.034;6.984;2023-11-19T05:34:15;56526.59;;;-142.13;73.22
11712;BME280;5912;51.034;6.984;2023-11-19T05:36:40;56480.53;;;-142.13;73.60
11712;BME280;5912;51.034;6.984;2023-11-19T05:39:06;56510.56;;;-142.13;73.20
11712;BME280;5912;51.034;6.984;2023-11-19T05:41:31;56516.59;;;-142.13;73.03
11712;BME280;5912;51.034;6.984;2023-11-19T05:43:56;56514.59;;;-142.13;72.81
11712;BME280;5912;51.034;6.984;2023-11-19T05:46:22;56516.59;;;-142.13;72.47
11712;BME280;5912;51.034;6.984;2023-11-19T05:48:47;56508.56;;;-142.13;72.78
11712;BME280;5912;51.034;6.984;2023-11-19T05:51:13;56522.59;;;-142.13;72.67
11712;BME280;5912;51.034;6.984;2023-11-19T05:53:46;56508.56;;;-142.13;72.43
11712;BME280;5912;51.034;6.984;2023-11-19T05:56:11;56480.53;;;-142.13;72.76
11712;BME280;5912;51.034;6.984;2023-11-19T05:58:37;56500.56;;;-142.13;72.82
11712;BME280;5912;51.034;6.984;2023-11-19T06:01:05;56528.59;;;-142.13;72.55
11712;BME280;5912;51.034;6.984;2023-11-19T06:03:32;56536.63;;;-142.13;72.79
11712;BME280;5912;51.034;6.984;2023-11-19T06:05:58;56520.59;;;-142.13;72.73
11712;BME280;5912;51.034;6.984;2023-11-19T06:08:23;56582.69;;;-142.13;72.50
11712;BME280;5912;51.034;6.984;2023-11-19T06:10:49;56512.59;;;-142.13;72.46
11712;BME280;5912;51.034;6.984;2023-11-19T06:13:16;56500.56;;;-142.13;72.38
11712;BME280;5912;51.034;6.984;2023-11-19T06:15:42;56534.63;;;-142.13;72.39
11712;BME280;5912;51.034;6.984;2023-11-19T06:18:08;56528.59;;;-142.13;72.21
11712;BME280;5912;51.034;6.984;2023-11-19T06:20:33;56508.56;;;-142.13;72.24
11712;BME280;5912;51.034;6.984;2023-11-19T06:22:59;56520.59;;;-142.13;72.27
11712;BME280;5912;51.034;6.984;2023-11-19T06:25:25;56528.59;;;-142.13;72.11
11712;BME280;5912;51.034;6.984;2023-11-19T06:27:51;56514.59;;;-142.13;72.00
11712;BME280;5912;51.034;6.984;2023-11-19T06:30:16;56516.59;;;-142.13;72.16
11712;BME280;5912;51.034;6.984;2023-11-19T06:32:42;56514.59;;;-142.13;72.15
11712;BME280;5912;51.034;6.984;2023-11-19T06:35:07;56496.56;;;-142.13;72.01
11712;BME280;5912;51.034;6.984;2023-11-19T06:37:34;56532.63;;;-142.13;71.82
11712;BME280;5912;51.034;6.984;2023-11-19T06:39:59;56522.59;;;-142.13;72.16
11712;BME280;5912;51.034;6.984;2023-11-19T06:42:25;56500.56;;;-142.13;71.41
11712;BME280;5912;51.034;6.984;2023-11-19T06:44:50;56524.59;;;-142.13;71.11
11712;BME280;5912;51.034;6.984;2023-11-19T06:47:16;56536.63;;;-142.13;70.98
11712;BME280;5912;51.034;6.984;2023-11-19T06:49:44;56512.59;;;-142.13;71.07
11712;BME280;5912;51.034;6.984;2023-11-19T06:52:09;56524.59;;;-142.13;71.33
11712;BME280;5912;51.034;6.984;2023-11-19T06:54:35;56520.59;;;-142.13;71.36
11712;BME280;5912;51.034;6.984;2023-11-19T06:57:00;56528.59;;;-142.13;71.07
11712;BME280;5912;51.034;6.984;2023-11-19T06:59:26;56518.59;;;-142.13;71.23
11712;BME280;5912;51.034;6.984;2023-11-19T07:01:51;56508.56;;;-142.13;71.10
11712;BME280;5912;51.034;6.984;2023-11-19T07:04:16;56528.59;;;-142.13;71.23
11712;BME280;5912;51.034;6.984;2023-11-19T07:06:41;56534.63;;;-142.13;71.42
11712;BME280;5912;51.034;6.984;2023-11-19T07:09:07;56544.63;;;-142.13;71.01
11712;BME280;5912;51.034;6.984;2023-11-19T07:11:39;56520.59;;;-142.13;70.54
11712;BME280;5912;51.034;6.984;2023-11-19T07:14:06;56530.59;;;-142.13;70.86
11712;BME280;5912;51.034;6.984;2023-11-19T07:16:34;56532.63;;;-142.13;70.83
11712;BME280;5912;51.034;6.984;2023-11-19T07:19:02;56520.59;;;-142.13;70.54
11712;BME280;5912;51.034;6.984;2023-11-19T07:21:27;56556.66;;;-142.13;70.55
11712;BME280;5912;51.034;6.984;2023-11-19T07:23:55;56508.56;;;-142.13;70.37
11712;BME280;5912;51.034;6.984;2023-11-19T07:26:21;56498.56;;;-142.13;69.83
11712;BME280;5912;51.034;6.984;2023-11-19T07:28:47;56538.63;;;-142.13;69.84
11712;BME280;5912;51.034;6.984;2023-11-19T07:31:13;56506.56;;;-142.13;70.11
11712;BME280;5912;51.034;6.984;2023-11-19T07:33:39;56512.59;;;-142.13;70.11
11712;BME280;5912;51.034;6.984;2023-11-19T07:36:05;56524.59;;;-142.13;70.21
11712;BME280;5912;51.034;6.984;2023-11-19T07:38:30;56530.59;;;-142.13;70.12
11712;BME280;5912;51.034;6.984;2023-11-19T07:40:56;56516.59;;;-142.13;70.37
11712;BME280;5912;51.034;6.984;2023-11-19T07:43:21;56508.56;;;-142.13;70.33
11712;BME280;5912;51.034;6.984;2023-11-19T07:45:46;56512.59;;;-142.13;70.57
11712;BME280;5912;51.034;6.984;2023-11-19T07:48:12;56532.63;;;-142.13;69.73
11712;BME280;5912;51.034;6.984;2023-11-19T07:50:39;56528.59;;;-142.13;69.70
11712;BME280;5912;51.034;6.984;2023-11-19T07:53:07;56486.53;;;-142.13;69.48
11712;BME280;5912;51.034;6.984;2023-11-19T07:55:34;56530.59;;;-142.13;69.08
11712;BME280;5912;51.034;6.984;2023-11-19T07:57:59;56526.59;;;-142.13;68.96
11712;BME280;5912;51.034;6.984;2023-11-19T08:00:24;56506.56;;;-142.13;68.89
11712;BME280;5912;51.034;6.984;2023-11-19T08:02:50;56496.56;;;-142.13;68.67
11712;BME280;5912;51.034;6.984;2023-11-19T08:05:15;56516.59;;;-142.13;68.12
11712;BME280;5912;51.034;6.984;2023-11-19T08:07:40;56500.56;;;-142.13;67.98
11712;BME280;5912;51.034;6.984;2023-11-19T08:10:07;56514.59;;;-142.13;67.16
11712;BME280;5912;51.034;6.984;2023-11-19T08:12:35;56498.56;;;-142.13;67.17
11712;BME280;5912;51.034;6.984;2023-11-19T08:15:04;56538.63;;;-142.13;67.38
11712;BME280;5912;51.034;6.984;2023-11-19T08:17:30;56520.59;;;-142.13;67.15
11712;BME280;5912;51.034;6.984;2023-11-19T08:19:55;56498.56;;;-142.13;66.96
11712;BME280;5912;51.034;6.984;2023-11-19T08:22:21;56486.53;;;-142.13;66.57
11712;BME280;5912;51.034;6.984;2023-11-19T08:24:47;56494.56;;;-142.13;65.92
11712;BME280;5912;51.034;6.984;2023-11-19T08:27:13;56460.50;;;-142.13;65.91
11712;BME280;5912;51.034;6.984;2023-11-19T08:29:38;56502.56;;;-142.13;65.37
11712;BME280;5912;51.034;6.984;2023-11-19T08:32:04;56464.50;;;-142.13;65.04
11712;BME280;5912;51.034;6.984;2023-11-19T08:34:29;56488.53;;;-142.13;64.98
11712;BME280;5912;51.034;6.984;2023-11-19T08:36:54;56462.50;;;-142.13;64.38
11712;BME280;5912;51.034;6.984;2023-11-19T08:39:20;56488.53;;;-142.13;63.89
11712;BME280;5912;51.034;6.984;2023-11-19T08:41:49;56452.47;;;-142.13;63.94
11712;BME280;5912;51.034;6.984;2023-11-19T08:44:14;56460.50;;;-142.13;63.55
11712;BME280;5912;51.034;6.984;2023-11-19T08:46:47;56434.44;;;-142.13;63.58
11712;BME280;5912;51.034;6.984;2023-11-19T08:49:12;56452.47;;;-142.13;63.23
11712;BME280;5912;51.034;6.984;2023-11-19T08:51:37;56486.53;;;-142.13;62.94
11712;BME280;5912;51.034;6.984;2023-11-19T08:54:03;56444.47;;;-142.13;61.81
11712;BME280;5912;51.034;6.984;2023-11-19T08:56:28;56472.50;;;-142.13;61.94
11712;BME280;5912;51.034;6.984;2023-11-19T08:58:58;56456.50;;;-142.13;62.57
11712;BME280;5912;51.034;6.984;2023-11-19T09:01:23;56450.47;;;-142.13;61.86
11712;BME280;5912;51.034;6.984;2023-11-19T09:03:49;56444.47;;;-142.13;60.88
11712;BME280;5912;51.034;6.984;2023-11-19T09:06:15;56428.44;;;-142.13;60.97
11712;BME280;5912;51.034;6.984;2023-11-19T09:08:42;56452.47;;;-142.13;60.51
11712;BME280;5912;51.034;6.984;2023-11-19T09:11:07;56446.47;;;-142.13;60.57
11712;BME280;5912;51.034;6.984;2023-11-19T09:13:33;56436.47;;;-142.13;60.27
11712;BME280;5912;51.034;6.984;2023-11-19T09:15:59;56424.44;;;-142.13;59.20
11712;BME280;5912;51.034;6.984;2023-11-19T09:18:28;56416.44;;;-142.13;57.92
11712;BME280;5912;51.034;6.984;2023-11-19T09:20:54;56422.44;;;-142.13;57.34
11712;BME280;5912;51.034;6.984;2023-11-19T09:23:19;56436.47;;;-142.13;57.51
11712;BME280;5912;51.034;6.984;2023-11-19T09:25:45;56430.44;;;-142.13;57.75
11712;BME280;5912;51.034;6.984;2023-11-19T09:28:10;56432.44;;;-142.13;57.02
11712;BME280;5912;51.034;6.984;2023-11-19T09:30:35;56404.41;;;-142.13;57.96
11712;BME280;5912;51.034;6.984;2023-11-19T09:33:01;56428.44;;;-142.13;58.59
11712;BME280;5912;51.034;6.984;2023-11-19T09:35:26;56428.44;;;-142.13;57.95
11712;BME280;5912;51.034;6.984;2023-11-19T09:37:51;56410.41;;;-142.13;57.31
11712;BME280;5912;51.034;6.984;2023-11-19T09:40:17;56424.44;;;-142.13;57.56
11712;BME280;5912;51.034;6.984;2023-11-19T09:42:44;56404.41;;;-142.13;57.11
11712;BME280;5912;51.034;6.984;2023-11-19T09:45:15;56392.38;;;-142.13;53.95
11712;BME280;5912;51.034;6.984;2023-11-19T09:47:45;56358.34;;;-142.13;54.27
11712;BME280;5912;51.034;6.984;2023-11-19T09:50:18;56364.34;;;-142.13;53.55
11712;BME280;5912;51.034;6.984;2023-11-19T09:52:59;56368.34;;;-142.13;53.53
11712;BME280;5912;51.034;6.984;2023-11-19T09:55:24;56388.38;;;-142.13;53.56
11712;BME280;5912;51.034;6.984;2023-11-19T09:57:51;56400.41;;;-142.13;54.20
11712;BME280;5912;51.034;6.984;2023-11-19T10:00:19;56442.47;;;-142.13;55.27
11712;BME280;5912;51.034;6.984;2023-11-19T10:02:46;56400.41;;;-142.13;55.60
11712;BME280;5912;51.034;6.984;2023-11-19T10:05:12;56388.38;;;-142.13;55.02
11712;BME280;5912;51.034;6.984;2023-11-19T10:07:39;56418.44;;;-142.13;54.39
11712;BME280;5912;51.034;6.984;2023-11-19T10:10:05;56408.41;;;-142.13;54.89
11712;BME280;5912;51.034;6.984;2023-11-19T10:12:31;56396.41;;;-142.13;53.98
11712;BME280;5912;51.034;6.984;2023-11-19T10:14:57;56410.41;;;-142.13;53.76
11712;BME280;5912;51.034;6.984;2023-11-19T10:17:28;56390.38;;;-142.13;53.18
11712;BME280;5912;51.034;6.984;2023-11-19T10:19:57;56364.34;;;-142.13;52.87
11712;BME280;5912;51.034;6.984;2023-11-19T10:22:23;56372.34;;;-142.13;51.91
11712;BME280;5912;51.034;6.984;2023-11-19T10:24:49;56352.31;;;-142.13;51.60
11712;BME280;5912;51.034;6.984;2023-11-19T10:27:15;56398.41;;;-142.13;49.70
11712;BME280;5912;51.034;6.984;2023-11-19T10:29:42;56338.31;;;-142.13;49.96
11712;BME280;5912;51.034;6.984;2023-11-19T10:32:09;56348.31;;;-142.13;49.95
11712;BME280;5912;51.034;6.984;2023-11-19T10:34:34;56332.28;;;-142.13;50.59
11712;BME280;5912;51.034;6.984;2023-11-19T10:37:02;56372.34;;;-142.13;51.57
11712;BME280;5912;51.034;6.984;2023-11-19T10:39:52;56398.41;;;-142.13;52.24
11712;BME280;5912;51.034;6.984;2023-11-19T10:42:20;56398.41;;;-142.13;52.38
11712;BME280;5912;51.034;6.984;2023-11-19T10:44:46;56392.38;;;-142.13;52.90
11712;BME280;5912;51.034;6.984;2023-11-19T10:47:14;56390.38;;;-142.13;52.87
11712;BME280;5912;51.034;6.984;2023-11-19T10:49:39;56380.38;;;-142.13;52.30
11712;BME280;5912;51.034;6.984;2023-11-19T10:52:08;56398.41;;;-142.13;52.43
11712;BME280;5912;51.034;6.984;2023-11-19T10:54:34;56382.38;;;-142.13;52.62
11712;BME280;5912;51.034;6.984;2023-11-19T10:57:01;56384.38;;;-142.13;51.82
11712;BME280;5912;51.034;6.984;2023-11-19T10:59:31;56374.34;;;-142.13;52.04
11712;BME280;5912;51.034;6.984;2023-11-19T11:02:03;56390.38;;;-142.13;51.46
11712;BME280;5912;51.034;6.984;2023-11-19T11:04:33;56408.41;;;-142.13;52.22
11712;BME280;5912;51.034;6.984;2023-11-19T11:07:02;56402.41;;;-142.13;51.48
11712;BME280;5912;51.034;6.984;2023-11-19T11:09:30;56406.41;;;-142.13;50.70
11712;BME280;5912;51.034;6.984;2023-11-19T11:11:56;56408.41;;;-142.13;51.13
11712;BME280;5912;51.034;6.984;2023-11-19T11:14:24;56360.34;;;-142.13;51.11
11712;BME280;5912;51.034;6.984;2023-11-19T11:16:49;56422.44;;;-142.13;50.82
11712;BME280;5912;51.034;6.984;2023-11-19T11:19:16;56412.41;;;-142.13;52.35
11712;BME280;5912;51.034;6.984;2023-11-19T11:21:43;56408.41;;;-142.13;52.79
11712;BME280;5912;51.034;6.984;2023-11-19T11:32:58;56384.38;;;-142.13;54.58
11712;BME280;5912;51.034;6.984;2023-11-19T11:38:04;56416.44;;;-142.13;52.09
11712;BME280;5912;51.034;6.984;2023-11-19T11:40:31;56428.44;;;-142.13;53.09
11712;BME280;5912;51.034;6.984;2023-11-19T11:49:03;56380.38;;;-142.13;52.79
11712;BME280;5912;51.034;6.984;2023-11-19T11:54:10;56346.31;;;-142.13;52.18
11712;BME280;5912;51.034;6.984;2023-11-19T11:56:39;56374.34;;;-142.13;52.09
11712;BME280;5912;51.034;6.984;2023-11-19T11:59:08;56392.38;;;-142.13;51.44
11712;BME280;5912;51.034;6.984;2023-11-19T12:02:00;56384.38;;;-142.13;50.39
11712;BME280;5912;51.034;6.984;2023-11-19T12:04:28;56374.34;;;-142.13;48.39
11712;BME280;5912;51.034;6.984;2023-11-19T12:07:11;56384.38;;;-142.13;48.78
11712;BME280;5912;51.034;6.984;2023-11-19T12:09:42;56368.34;;;-142.13;47.95
11712;BME280;5912;51.034;6.984;2023-11-19T12:12:20;56384.38;;;-142.13;47.78
11712;BME280;5912;51.034;6.984;2023-11-19T12:20:03;56332.28;;;-142.13;47.70
11712;BME280;5912;51.034;6.984;2023-11-19T12:22:31;56360.34;;;-142.13;47.58
11712;BME280;5912;51.034;6.984;2023-11-19T12:24:56;56340.31;;;-142.13;48.45
11712;BME280;5912;51.034;6.984;2023-11-19T12:27:22;56386.38;;;-142.13;49.17
11712;BME280;5912;51.034;6.984;2023-11-19T12:29:48;56402.41;;;-142.13;49.65
11712;BME280;5912;51.034;6.984;2023-11-19T12:32:14;56386.38;;;-142.13;49.49
11712;BME280;5912;51.034;6.984;2023-11-19T12:34:39;56374.34;;;-142.13;50.36
11712;BME280;5912;51.034;6.984;2023-11-19T12:37:05;56390.38;;;-142.13;50.91
11712;BME280;5912;51.034;6.984;2023-11-19T12:39:31;56416.44;;;-142.13;50.75
11712;BME280;5912;51.034;6.984;2023-11-19T12:41:56;56374.34;;;-142.13;51.44
11712;BME280;5912;51.034;6.984;2023-11-19T12:44:24;56360.34;;;-142.13;52.42
11712;BME280;5912;51.034;6.984;2023-11-19T12:47:06;56420.44;;;-142.13;51.54
11712;BME280;5912;51.034;6.984;2023-11-19T12:49:33;56376.34;;;-142.13;51.79
11712;BME280;5912;51.034;6.984;2023-11-19T12:51:58;56392.38;;;-142.13;51.87
11712;BME280;5912;51.034;6.984;2023-11-19T12:57:43;56392.38;;;-142.13;52.20
11712;BME280;5912;51.034;6.984;2023-11-19T13:00:19;56396.41;;;-142.13;51.82
11712;BME280;5912;51.034;6.984;2023-11-19T13:02:51;56408.41;;;-142.13;52.09
11712;BME280;5912;51.034;6.984;2023-11-19T13:07:46;56410.41;;;-142.13;52.34
11712;BME280;5912;51.034;6.984;2023-11-19T13:10:11;56392.38;;;-142.13;51.72
11712;BME280;5912;51.034;6.984;2023-11-19T13:12:36;56384.38;;;-142.13;51.32
11712;BME280;5912;51.034;6.984;2023-11-19T13:15:02;56370.34;;;-142.13;51.77
11712;BME280;5912;51.034;6.984;2023-11-19T13:17:27;56400.41;;;-142.13;51.64
11712;BME280;5912;51.034;6.984;2023-11-19T13:19:53;56396.41;;;-142.13;52.15